Kenner, LA

5:24 PM CDT on August 25, 2016 (GMT -0500)
Driftwood | | Change Station

Elev 7 ft 30.03 °N, 90.23 °W | Updated 5 seconds ago

Thunderstorms and Rain
Thunderstorm Rain
83.3 °F
Feels Like 97 °F
N
0.0
Wind Variable Wind from SE
Gusts 0.0 mph

Today
High -- | Low -- °F
--% Chance of Precip.
Yesterday
High -- | Low -- °F
Precip. -- in
Pressure 30.03 in
Visibility 2.5 miles
Clouds Mostly Cloudy 3300 ft
Mostly Cloudy 5000 ft
Overcast 15000 ft
Heat Index 97 °F
Dew Point 81 °F
Humidity 93%
Rainfall 1.54 in
Snow Depth Not available.
6:34 AM 7:30 PM
Last Quarter, 41% visible
SPECI KMSY 252218Z COR 05006G26KT 2 1/2SM TSRA BKN033CB BKN050 OVC150 28/24 A3003 RMK AO2 PK WND 12026/2211 RAB10 TSB18 OCNL LTGIC N TS N MOV SW P0017 T02780244
Pressure 30.03 in
Visibility 2.5 miles
Clouds Mostly Cloudy 3300 ft
Mostly Cloudy 5000 ft
Overcast 15000 ft
Heat Index 97 °F
Dew Point 81 °F
Humidity 93%
Rainfall 1.54 in
Snow Depth Not available.
6:34 AM 7:30 PM
Last Quarter, 41% visible
SPECI KMSY 252218Z COR 05006G26KT 2 1/2SM TSRA BKN033CB BKN050 OVC150 28/24 A3003 RMK AO2 PK WND 12026/2211 RAB10 TSB18 OCNL LTGIC N TS N MOV SW P0017 T02780244
A tropical disturbance pushing toward the Bahamas, is expected to develop into a tropical depression or storm, and will likely target Florida and the Gulf Coast this weekend into next week.

Right now, the disturbance remains a broad area of low pressure pushing through the Dominican Republic and Haiti, headed toward the southeast Bahamas. Rainfall totals over 3 inches (with locally higher amounts) are expected in HispaƱiola, particularly over elevated terrain.

10-Day Weather Forecast

Almanac

Astronomy

Aug. 25, 2016 Rise Set
Actual Time
Civil Twilight
Nautical Twilight
Astronomical Twilight
Moon
Length of Visible Light
Length of Day
Tomorrow will be .
, % of the Moon is Illuminated

Today's Extremes

State Highs State Lows

Community

WunderPhotos

Upload Photos

1,934,952 photos uploaded!

WunderBlog® & News

Nearby

Air Quality

  Air Quality AQ Index Pollutant
Not available.

Snow Depth

Station Depth Elevation

Earthquake Activity

City Distance Mag. Time & Date
Minimum magnitude displayed is 2.5.

Coastal Water Temperatures

Place Temperature

Stations

Nearby Weather Stations

Station Location Temp. Windchill Dew Point Humidity Wind Precip. Elev Updated Type
                   

Watches & Warnings

There are currently no watches in effect.